Карточка аэропорта UATT

Внимание!
Информация на этой странице в стадии наполнения.
Если вы не увидели какой-то информации, или заметили неточность - пожалуйста сообщите нам!
Спасибо!
Команда RU-STAFF
Название аэропортаАктобе
Название аэропорта (англ.)Aktobe
Превышение738 ft. (224.9 m.)
Координаты50°14.748', 57°12.402'
Высота перехода10000ft
Эшелон переходаFL120, QNH<733:FL130
Коды ответчика3440-3447, 3540-3547
Зона ОрВДАктобе РПИ (UATT)
Данные METARUATT 231700Z 08006MPS 9999 FEW070CB 19/10 Q1012 TEMPO VRB14MPS TS SQ RMK QFE740/0986 FLASHES
Проноз погоды (TAF)UATT 231152Z 2312/2412 10005MPS 9999 BKN030CB TX26/2312Z TN13/2401Z TEMPO 2312/2317 12012MPS 3100 -TSRA BKN011 BKN020CB TEMPO 2317/2321 2000 TSRA BKN007 BKN015CB TEMPO 2322/2406 22005MPS 2000 TSRA BKN007 BKN015CB BECMG 2410/2412 32010MPS
NOTAMshow/hide NOTAM
AWOS   TABLE

Информация о ВПП

ВПП Длина ВПП (м.) Покрытие Курс ВПП Частота ILS
313202Бетон315111.7
133202Бетон135111.7

Диспетчерские позиции




Спутниковое изображение